aviador You're here:

KPEO Decoded Metar

PENN YAN in NY, USA
Report Time2018-01-17 00:53:00
UTC Time2018-01-17 01:22:22
Flight Rules lifr LIFR
Wind330° at 03 kt
W.Decomp.*RWY 01: 2.6 kt HW 1.4 kt LCW
RWY 28: 1.4 kt HW 2.6 kt RCW
W.Rank330° ranks 16
Current wind is below 330° avg. (7.0)
Visibility2414 m
Phenomena:Light Snow
Mist
Clouds:Overcast 004 Hf
Expected CloudBase > 800 ft AGL from Temp-Dew spread
Ceiling400 ft
Temp-4°C (ISA -17)
Dew Point-6°C (86% RH)
AAT-7.8°C
QNH1027 hPa
Density Alt-1,713 ft
Elevation840 ft
Report Wrong Elevation
Raw Report
METAR KPEO 170053Z AUTO 33003KT 1 1/2SM -SN BR OVC004 M04/M06 A3034
RMK AO2 SLP289 P0000 T10391061=

Extra information for KPEO:More info

Metar Taf Metar & Taf Last 4 Metars F.Rules Stats Wind Profile Meteogram Temp Stats Airport Information Weather charts Add Link Nearby VenuesMetar ALERT Operation Metar Decoded Social comments

AIRNAV info for KPEO